Terminal Aerodrome Forecast
Issued by NWS

Home | Current Version | Previous Version | Text Only | Print | Product List | Glossary On
Versions: 1 2 3 4 5 6 7 8 9 10 11 12 13
195
FTUS45 KVEF 260533
TAFHND
TAF
KHND 260533Z 2606/2706 VRB05KT P6SM BKN180
     FM260800 VRB05KT P6SM BKN120 OVC200
     FM261500 VRB05KT P6SM FEW120 BKN200
     FM262300 21009G15KT P6SM FEW200=

USA.gov is the U.S. government's official web portal to all federal, state and local government web resources and services.